Gays Creek, KY (41745)

6:06 PM EST on December 09, 2016 (GMT -0500)
Carroll | | Change Station

Elev 1381 ft 37.59 °N, 83.31 °W | Updated 13 minutes ago

Partly Cloudy
Partly Cloudy
24 °F
Feels Like 18 °F
N
5
Wind Variable Wind from Variable

Today
High -- | Low -- °F
--% Chance of Precip.
Yesterday
High -- | Low -- °F
Precip. -- in
Pressure 30.56 in
Visibility 10.0 miles
Clouds Overcast 3100 ft
Windchill 18 °F
Dew Point 13 °F
Humidity 62%
Rainfall 0.00 in
Snow Depth Not available.
7:36 AM 5:16 PM
Waxing Gibbous, 78% visible
METAR KJKL 092253Z AUTO VRB04KT 10SM OVC031 M04/M11 A3050 RMK AO2 SLP346 T10441106
Pressure 30.56 in
Visibility 10.0 miles
Clouds Overcast 3100 ft
Windchill 18 °F
Dew Point 13 °F
Humidity 62%
Rainfall 0.00 in
Snow Depth Not available.
7:36 AM 5:16 PM
Waxing Gibbous, 78% visible
METAR KJKL 092253Z AUTO VRB04KT 10SM OVC031 M04/M11 A3050 RMK AO2 SLP346 T10441106

10-Day Weather Forecast

Almanac

Astronomy

Dec. 09, 2016 Rise Set
Actual Time
Civil Twilight
Nautical Twilight
Astronomical Twilight
Moon
Length of Visible Light
Length of Day
Tomorrow will be .
, % of the Moon is Illuminated

Today's Extremes

State Highs State Lows

Community

WunderPhotos

Upload Photos

1,956,535 photos uploaded!

WunderBlog® & News

Nearby

Air Quality

  Air Quality AQ Index Pollutant
Not available.

Snow Depth

Station Depth Elevation

Earthquake Activity

City Distance Mag. Time & Date
Minimum magnitude displayed is 2.5.

Coastal Water Temperatures

Place Temperature

Stations

Nearby Weather Stations

Station Location Temp. Windchill Dew Point Humidity Wind Precip. Elev Updated Type
                   

Watches & Warnings

There are currently no watches in effect.